createdAt,value
2018-06-25T00:00:58.360Z,101403.38
2018-06-25T00:03:28.623Z,101393.81
2018-06-25T00:05:58.727Z,101397.23
2018-06-25T00:08:28.934Z,101404.08
2018-06-25T00:10:59.239Z,101407.93
2018-06-25T00:13:29.489Z,101412.67
2018-06-25T00:15:59.735Z,101405.19
2018-06-25T00:18:29.738Z,101405.53
2018-06-25T00:20:59.978Z,101394.67
2018-06-25T00:23:30.257Z,101389.02
2018-06-25T00:26:00.506Z,101391.92
2018-06-25T00:28:30.771Z,101403.86
2018-06-25T00:31:01.027Z,101403.38
2018-06-25T00:33:31.308Z,101403.95
2018-06-25T00:36:01.588Z,101400.83
2018-06-25T00:38:31.866Z,101394.89
2018-06-25T00:41:02.138Z,101398.64
2018-06-25T00:43:32.417Z,101397.80
2018-06-25T00:46:02.693Z,101408.78
2018-06-25T00:48:33.088Z,101398.30
2018-06-25T00:51:03.367Z,101391.16
2018-06-25T00:53:33.593Z,101393.94
2018-06-25T00:56:03.881Z,101386.11
2018-06-25T00:58:51.429Z,101384.44
2018-06-25T01:01:21.684Z,101392.86
2018-06-25T01:03:51.707Z,101389.96
2018-06-25T01:06:21.637Z,101396.47
2018-06-25T01:08:51.563Z,101389.83
2018-06-25T01:11:21.816Z,101380.30
2018-06-25T01:13:52.070Z,101384.41
2018-06-25T01:16:22.048Z,101395.02
2018-06-25T01:18:52.165Z,101396.22
2018-06-25T01:21:22.498Z,101390.81
2018-06-25T01:23:52.749Z,101396.22
2018-06-25T01:26:22.746Z,101405.41
2018-06-25T01:28:52.838Z,101411.19
2018-06-25T01:31:23.118Z,101401.05
2018-06-25T01:33:53.392Z,101402.38
2018-06-25T01:36:23.713Z,101401.05
2018-06-25T01:38:54.093Z,101393.94
2018-06-25T01:41:24.507Z,101397.92
2018-06-25T01:43:54.762Z,101391.41
2018-06-25T01:46:25.049Z,101394.41
2018-06-25T01:48:55.303Z,101393.94
2018-06-25T01:51:25.331Z,101391.77
2018-06-25T01:53:55.482Z,101395.87
2018-06-25T01:56:25.774Z,101394.63
2018-06-25T01:58:56.034Z,101401.52
2018-06-25T02:01:26.291Z,101396.47
2018-06-25T02:03:56.608Z,101402.98
2018-06-25T02:06:26.948Z,101402.03
2018-06-25T02:08:57.240Z,101395.48
2018-06-25T02:11:27.481Z,101396.56
2018-06-25T02:13:57.767Z,101407.80
2018-06-25T02:16:28.023Z,101405.63
2018-06-25T02:18:58.388Z,101400.80
2018-06-25T02:21:28.646Z,101405.16
2018-06-25T02:23:58.964Z,101388.13
2018-06-25T02:26:29.245Z,101395.96
2018-06-25T02:28:59.685Z,101395.48
2018-06-25T02:31:29.979Z,101393.69
2018-06-25T02:34:00.262Z,101400.92
2018-06-25T02:36:30.536Z,101402.34
2018-06-25T02:39:00.903Z,101403.10
2018-06-25T02:41:31.217Z,101411.06
2018-06-25T02:44:01.463Z,101413.33
2018-06-25T02:46:31.740Z,101409.95
2018-06-25T02:49:02.034Z,101403.20
2018-06-25T02:51:32.342Z,101409.73
2018-06-25T02:54:02.652Z,101406.23
2018-06-25T02:56:32.922Z,101405.63
2018-06-25T02:59:03.213Z,101404.14
2018-06-25T03:01:33.547Z,101402.72
2018-06-25T03:04:03.819Z,101404.42
2018-06-25T03:06:34.125Z,101411.16
2018-06-25T03:09:06.871Z,101413.42
2018-06-25T03:11:37.217Z,101411.62
2018-06-25T03:14:07.782Z,101412.86
2018-06-25T03:16:38.190Z,101413.17
2018-06-25T03:19:08.477Z,101420.06
2018-06-25T03:21:38.985Z,101424.41
2018-06-25T03:24:09.291Z,101417.78
2018-06-25T03:26:39.323Z,101416.68
2018-06-25T03:29:09.594Z,101419.23
2018-06-25T03:31:39.934Z,101413.17
2018-06-25T03:34:10.194Z,101414.75
2018-06-25T03:36:40.249Z,101404.74
2018-06-25T03:39:11.749Z,101405.12
2018-06-25T03:41:42.203Z,101418.38
2018-06-25T03:44:12.515Z,101418.00
2018-06-25T03:46:42.786Z,101424.64
2018-06-25T03:49:13.108Z,101425.27
2018-06-25T03:51:43.358Z,101424.16
2018-06-25T03:54:13.770Z,101424.64
2018-06-25T03:56:44.048Z,101426.81
2018-06-25T03:59:14.375Z,101430.80
2018-06-25T04:01:44.720Z,101432.97
2018-06-25T04:04:15.121Z,101434.39
2018-06-25T04:06:45.366Z,101434.90
2018-06-25T04:09:15.642Z,101435.25
2018-06-25T04:11:46.129Z,101430.92
2018-06-25T04:14:16.458Z,101441.28
2018-06-25T04:16:46.779Z,101440.55
2018-06-25T04:19:17.101Z,101433.06
2018-06-25T04:21:48.424Z,101431.87
2018-06-25T04:24:18.712Z,101434.77
2018-06-25T04:26:49.014Z,101435.62
2018-06-25T04:29:19.386Z,101438.88
2018-06-25T04:31:49.494Z,101437.17
2018-06-25T04:34:19.782Z,101445.51
2018-06-25T04:36:50.066Z,101447.05
2018-06-25T04:39:20.339Z,101456.94
2018-06-25T04:41:50.617Z,101452.14
2018-06-25T04:44:20.897Z,101457.92
2018-06-25T04:46:51.286Z,101464.08
2018-06-25T04:49:21.550Z,101469.38
2018-06-25T04:51:51.850Z,101466.73
2018-06-25T04:54:22.087Z,101469.22
2018-06-25T04:56:52.382Z,101471.88
2018-06-25T04:59:22.685Z,101474.30
2018-06-25T05:01:52.956Z,101477.91
2018-06-25T05:04:23.338Z,101481.32
2018-06-25T05:06:53.611Z,101479.61
2018-06-25T05:09:23.896Z,101477.17
2018-06-25T05:11:54.190Z,101474.40
2018-06-25T05:14:24.435Z,101488.04
2018-06-25T05:16:54.715Z,101479.70
2018-06-25T05:19:24.977Z,101487.57
2018-06-25T05:21:55.254Z,101483.21
2018-06-25T05:24:25.680Z,101492.88
2018-06-25T05:26:55.947Z,101480.30
2018-06-25T05:29:26.310Z,101487.57
2018-06-25T05:31:56.594Z,101486.62
2018-06-25T05:34:26.911Z,101490.61
2018-06-25T05:36:57.378Z,101492.41
2018-06-25T05:39:27.357Z,101495.53
2018-06-25T05:41:57.544Z,101496.47
2018-06-25T05:44:27.814Z,101495.87
2018-06-25T05:46:58.078Z,101500.10
2018-06-25T05:49:28.334Z,101494.80
2018-06-25T05:51:58.591Z,101493.47
2018-06-25T05:54:28.619Z,101496.12
2018-06-25T05:56:58.667Z,101490.56
2018-06-25T05:59:28.783Z,101492.36
2018-06-25T06:01:59.060Z,101500.67
2018-06-25T06:04:29.319Z,101507.08
2018-06-25T06:06:59.575Z,101509.00
2018-06-25T06:09:29.907Z,101507.68
2018-06-25T06:12:00.178Z,101513.84
2018-06-25T06:14:30.511Z,101510.33
2018-06-25T06:17:00.756Z,101508.63
2018-06-25T06:19:31.032Z,101510.33
2018-06-25T06:22:01.323Z,101516.49
2018-06-25T06:24:32.198Z,101513.84
2018-06-25T06:27:02.470Z,101512.13
2018-06-25T06:29:32.837Z,101506.48
2018-06-25T06:32:03.117Z,101510.16
2018-06-25T06:34:33.428Z,101524.54
2018-06-25T06:37:03.708Z,101516.32
2018-06-25T06:39:34.411Z,101518.97
2018-06-25T06:42:04.717Z,101526.94
2018-06-25T06:44:35.052Z,101530.56
2018-06-25T06:47:05.370Z,101536.98
2018-06-25T06:49:35.665Z,101539.13
2018-06-25T06:52:05.749Z,101540.45
2018-06-25T06:54:35.863Z,101545.75
2018-06-25T06:57:06.196Z,101550.59
2018-06-25T06:59:36.251Z,101553.72
2018-06-25T07:02:06.518Z,101552.51
2018-06-25T07:04:36.800Z,101548.91
2018-06-25T07:07:06.867Z,101552.77
2018-06-25T07:09:37.040Z,101561.45
2018-06-25T07:12:07.301Z,101560.73
2018-06-25T07:14:37.547Z,101554.57
2018-06-25T07:17:07.834Z,101552.39
2018-06-25T07:19:38.125Z,101554.22
2018-06-25T07:22:08.428Z,101553.72
2018-06-25T07:24:38.726Z,101554.09
2018-06-25T07:27:09.027Z,101554.57
2018-06-25T07:29:39.445Z,101555.55
2018-06-25T07:32:09.780Z,101563.00
2018-06-25T07:34:40.141Z,101561.20
2018-06-25T07:37:10.454Z,101562.27
2018-06-25T07:39:40.827Z,101560.08
2018-06-25T07:42:11.325Z,101569.63
2018-06-25T07:44:41.673Z,101563.38
2018-06-25T07:47:12.146Z,101566.98
2018-06-25T07:49:42.315Z,101562.27
2018-06-25T07:52:12.480Z,101560.34
2018-06-25T07:54:42.742Z,101560.84
2018-06-25T07:57:13.104Z,101562.53
2018-06-25T07:59:43.478Z,101564.83
2018-06-25T08:02:13.842Z,101568.30
2018-06-25T08:04:43.941Z,101564.53
2018-06-25T08:07:13.915Z,101565.66
2018-06-25T08:09:44.168Z,101566.50
2018-06-25T08:12:14.477Z,101565.30
2018-06-25T08:14:44.753Z,101562.17
2018-06-25T08:17:15.110Z,101558.28
2018-06-25T08:19:45.742Z,101569.63
2018-06-25T08:22:16.080Z,101570.81
2018-06-25T08:24:46.395Z,101576.77
2018-06-25T08:27:16.641Z,101580.95
2018-06-25T08:29:46.940Z,101588.79
2018-06-25T08:35:21.477Z,101597.13
2018-06-25T08:37:51.533Z,101584.72
2018-06-25T08:40:21.684Z,101584.72
2018-06-25T08:42:51.968Z,101594.36
2018-06-25T08:45:22.234Z,101595.59
2018-06-25T08:47:52.487Z,101590.64
2018-06-25T08:50:22.751Z,101587.05
2018-06-25T08:52:53.037Z,101590.55
2018-06-25T08:55:23.431Z,101589.22
2018-06-25T08:57:53.711Z,101585.59
2018-06-25T09:00:23.978Z,101583.53
2018-06-25T09:02:54.262Z,101589.58
2018-06-25T09:05:24.548Z,101586.45
2018-06-25T09:07:54.859Z,101589.10
2018-06-25T09:10:25.145Z,101585.25
2018-06-25T09:12:55.587Z,101592.14
2018-06-25T09:15:25.981Z,101586.57
2018-06-25T09:17:56.259Z,101588.63
2018-06-25T09:20:26.706Z,101577.55
2018-06-25T09:22:57.099Z,101581.88
2018-06-25T09:25:27.371Z,101578.61
2018-06-25T09:28:01.683Z,101585.50
2018-06-25T09:30:31.986Z,101593.47
2018-06-25T09:33:02.529Z,101589.48
2018-06-25T09:35:32.954Z,101594.88
2018-06-25T09:38:03.394Z,101592.61
2018-06-25T09:40:33.801Z,101595.14
2018-06-25T09:43:04.363Z,101594.41
2018-06-25T09:45:34.661Z,101602.28
2018-06-25T09:48:04.919Z,101605.48
2018-06-25T09:50:35.193Z,101609.37
2018-06-25T09:53:05.650Z,101605.41
2018-06-25T09:55:35.919Z,101611.30
2018-06-25T09:58:06.206Z,101597.27
2018-06-25T10:00:41.923Z,101606.94
2018-06-25T10:03:12.258Z,101611.30
2018-06-25T10:05:42.520Z,101608.65
2018-06-25T10:08:12.829Z,101603.55
2018-06-25T10:10:43.044Z,101616.10
2018-06-25T10:13:13.050Z,101609.00
2018-06-25T10:15:43.354Z,101606.81
2018-06-25T10:18:13.693Z,101601.25
2018-06-25T10:20:44.258Z,101606.94
2018-06-25T10:23:14.502Z,101607.88
2018-06-25T10:25:45.290Z,101607.41
2018-06-25T10:28:15.773Z,101601.63
2018-06-25T10:30:46.253Z,101602.23
2018-06-25T10:33:18.634Z,101604.67
2018-06-25T10:35:50.053Z,101604.38
2018-06-25T10:38:20.462Z,101602.37
2018-06-25T10:40:50.834Z,101598.98
2018-06-25T10:43:20.935Z,101601.52
2018-06-25T10:45:51.190Z,101601.52
2018-06-25T10:48:21.263Z,101595.47
2018-06-25T10:50:51.425Z,101600.30
2018-06-25T10:53:21.915Z,101605.88
2018-06-25T10:55:52.375Z,101597.66
2018-06-25T10:58:22.809Z,101598.51
2018-06-25T11:00:52.977Z,101602.37
2018-06-25T11:03:23.463Z,101597.44
2018-06-25T11:05:54.696Z,101596.47
2018-06-25T11:08:24.991Z,101602.63
2018-06-25T11:10:55.274Z,101590.81
2018-06-25T11:13:26.632Z,101598.91
2018-06-25T11:15:56.877Z,101600.73
2018-06-25T11:18:27.159Z,101605.54
2018-06-25T11:20:57.462Z,101602.53
2018-06-25T11:23:27.648Z,101595.52
2018-06-25T11:25:58.569Z,101596.97
2018-06-25T11:28:28.842Z,101602.53
2018-06-25T11:30:59.106Z,101594.11
2018-06-25T11:33:31.043Z,101593.98
2018-06-25T11:36:03.095Z,101586.97
2018-06-25T11:38:35.490Z,101587.47
2018-06-25T11:41:05.775Z,101582.52
2018-06-25T11:43:36.063Z,101585.91
2018-06-25T11:46:06.347Z,101583.16
2018-06-25T11:48:38.551Z,101572.64
2018-06-25T11:51:09.331Z,101575.80
2018-06-25T11:53:40.629Z,101577.13
2018-06-25T11:56:11.826Z,101572.88
2018-06-25T11:58:44.026Z,101573.36
2018-06-25T12:01:15.212Z,101578.54
2018-06-25T12:03:45.322Z,101580.72
2018-06-25T12:06:15.462Z,101582.99
2018-06-25T12:08:47.612Z,101584.70
2018-06-25T12:11:18.031Z,101585.17
2018-06-25T12:13:48.289Z,101583.84
2018-06-25T12:16:18.530Z,101582.17
2018-06-25T12:18:48.846Z,101581.19
2018-06-25T12:21:19.978Z,101574.69
2018-06-25T12:23:51.828Z,101585.43
2018-06-25T12:26:22.312Z,101583.84
2018-06-25T12:28:53.983Z,101583.75
2018-06-25T12:31:24.610Z,101584.31
2018-06-25T12:33:54.993Z,101585.91
2018-06-25T12:36:25.638Z,101579.77
2018-06-25T12:38:55.905Z,101582.78
2018-06-25T12:41:26.225Z,101578.71
2018-06-25T12:43:56.536Z,101575.80
2018-06-25T12:46:26.628Z,101571.81
2018-06-25T12:48:56.811Z,101575.41
2018-06-25T12:51:27.210Z,101576.27
2018-06-25T12:53:57.486Z,101573.97
2018-06-25T12:56:27.639Z,101575.67
2018-06-25T12:58:58.104Z,101576.73
2018-06-25T13:01:28.550Z,101577.21
2018-06-25T13:03:58.823Z,101578.33
2018-06-25T13:06:29.217Z,101579.77
2018-06-25T13:08:59.636Z,101576.53
2018-06-25T13:11:30.048Z,101576.41
2018-06-25T13:14:00.374Z,101567.23
2018-06-25T13:16:30.853Z,101573.66
2018-06-25T13:19:01.180Z,101565.70
2018-06-25T13:21:31.564Z,101561.81
2018-06-25T13:24:01.822Z,101569.09
2018-06-25T13:26:32.130Z,101573.53
2018-06-25T13:29:02.407Z,101572.81
2018-06-25T13:31:32.689Z,101571.95
2018-06-25T13:34:03.059Z,101566.65
2018-06-25T13:36:33.343Z,101557.48
2018-06-25T13:39:03.714Z,101554.11
2018-06-25T13:41:34.054Z,101562.07
2018-06-25T13:44:04.415Z,101552.31
2018-06-25T13:46:35.024Z,101551.58
2018-06-25T13:49:05.331Z,101558.59
2018-06-25T13:51:35.666Z,101546.36
2018-06-25T13:54:06.064Z,101558.94
2018-06-25T13:56:36.326Z,101553.16
2018-06-25T13:59:09.406Z,101553.16
2018-06-25T14:01:39.904Z,101552.44
2018-06-25T14:04:09.973Z,101552.91
2018-06-25T14:06:40.120Z,101560.02
2018-06-25T14:09:11.510Z,101558.69
2018-06-25T14:11:41.949Z,101565.80
2018-06-25T14:14:12.293Z,101561.34
2018-06-25T14:16:42.853Z,101560.02
2018-06-25T14:19:13.006Z,101553.77
2018-06-25T14:21:43.289Z,101548.45
2018-06-25T14:24:18.690Z,101552.31
2018-06-25T14:26:49.015Z,101551.97
2018-06-25T14:29:24.517Z,101551.67
2018-06-25T14:31:58.929Z,101556.98
2018-06-25T14:34:29.202Z,101552.05
2018-06-25T14:36:59.480Z,101555.66
2018-06-25T14:39:29.769Z,101561.72
2018-06-25T14:42:00.079Z,101556.41
2018-06-25T14:44:30.383Z,101552.44
2018-06-25T14:47:00.642Z,101550.64
2018-06-25T14:49:31.006Z,101549.78
2018-06-25T14:52:01.271Z,101551.45
2018-06-25T14:54:31.547Z,101548.80
2018-06-25T14:57:01.908Z,101553.77
2018-06-25T14:59:32.183Z,101549.40
2018-06-25T15:02:02.447Z,101549.31
2018-06-25T15:04:32.734Z,101542.77
2018-06-25T15:07:03.013Z,101543.62
2018-06-25T15:09:33.311Z,101545.42
2018-06-25T15:12:03.819Z,101544.22
2018-06-25T15:14:34.148Z,101544.95
2018-06-25T15:17:04.449Z,101543.15
2018-06-25T15:19:34.803Z,101547.60
2018-06-25T15:22:05.082Z,101541.82
2018-06-25T15:24:35.414Z,101538.79
2018-06-25T15:27:05.934Z,101544.09
2018-06-25T15:29:36.240Z,101533.70
2018-06-25T15:32:06.771Z,101537.94
2018-06-25T15:34:36.861Z,101532.16
2018-06-25T15:37:07.031Z,101536.13
2018-06-25T15:39:37.290Z,101533.48
2018-06-25T15:42:07.766Z,101535.19
2018-06-25T15:44:38.062Z,101534.80
2018-06-25T15:47:08.389Z,101525.64
2018-06-25T15:49:38.862Z,101531.77
2018-06-25T15:52:09.191Z,101526.12
2018-06-25T15:54:39.469Z,101525.73
2018-06-25T15:57:09.783Z,101521.67
2018-06-25T15:59:40.065Z,101517.56
2018-06-25T16:02:10.315Z,101513.11
2018-06-25T16:04:40.584Z,101510.55
2018-06-25T16:07:10.625Z,101520.59
2018-06-25T16:12:21.623Z,101515.86
2018-06-25T16:14:51.492Z,101513.58
2018-06-25T16:17:21.682Z,101511.41
2018-06-25T16:19:52.145Z,101505.24
2018-06-25T16:22:22.390Z,101511.05
2018-06-25T16:24:52.700Z,101510.93
2018-06-25T16:27:23.017Z,101516.23
2018-06-25T16:29:55.047Z,101515.86
2018-06-25T16:32:25.404Z,101514.44
2018-06-25T16:34:55.738Z,101511.87
2018-06-25T16:37:25.786Z,101512.73
2018-06-25T16:39:55.767Z,101515.86
2018-06-25T16:42:25.956Z,101514.05
2018-06-25T16:44:56.215Z,101511.53
2018-06-25T16:47:26.573Z,101515.02
2018-06-25T16:49:56.895Z,101517.97
2018-06-25T16:52:27.262Z,101509.95
2018-06-25T16:54:58.085Z,101519.08
2018-06-25T16:57:28.458Z,101520.70
2018-06-25T16:59:59.174Z,101522.72
2018-06-25T17:02:29.763Z,101530.22
2018-06-25T17:05:00.237Z,101525.98
2018-06-25T17:07:30.643Z,101521.61
2018-06-25T17:10:01.209Z,101522.56
2018-06-25T17:12:31.471Z,101511.66
2018-06-25T17:15:01.783Z,101519.09
2018-06-25T17:17:31.822Z,101519.44
2018-06-25T17:20:02.018Z,101521.23
2018-06-25T17:22:32.166Z,101521.61
2018-06-25T17:25:02.459Z,101519.09
2018-06-25T17:27:32.605Z,101510.84
2018-06-25T17:30:02.776Z,101516.44
2018-06-25T17:32:33.032Z,101507.97
2018-06-25T17:35:03.305Z,101514.22
2018-06-25T17:37:33.566Z,101509.39
2018-06-25T17:40:03.918Z,101510.33
2018-06-25T17:42:34.204Z,101491.88
2018-06-25T17:45:04.559Z,101495.02
2018-06-25T17:47:35.492Z,101497.45
2018-06-25T17:50:06.225Z,101491.28
2018-06-25T17:52:36.579Z,101501.05
2018-06-25T17:55:06.966Z,101503.70
2018-06-25T17:57:37.484Z,101500.09
2018-06-25T18:00:07.782Z,101500.58
2018-06-25T18:02:39.201Z,101501.55
2018-06-25T18:05:10.420Z,101502.38
2018-06-25T18:07:41.124Z,101495.02
2018-06-25T18:10:11.526Z,101498.77
2018-06-25T18:12:42.072Z,101499.84
2018-06-25T18:15:12.078Z,101504.08
2018-06-25T18:17:42.410Z,101506.95
2018-06-25T18:20:12.852Z,101507.20
2018-06-25T18:22:43.137Z,101506.73
2018-06-25T18:25:13.528Z,101505.41
2018-06-25T18:27:43.854Z,101504.77
2018-06-25T18:30:14.403Z,101510.33
2018-06-25T18:32:44.825Z,101508.06
2018-06-25T18:35:15.180Z,101505.02
2018-06-25T18:37:46.899Z,101509.52
2018-06-25T18:40:18.410Z,101502.75
2018-06-25T18:42:49.042Z,101503.61
2018-06-25T18:45:19.333Z,101508.47
2018-06-25T18:47:49.904Z,101508.06
2018-06-25T18:50:20.193Z,101514.22
2018-06-25T18:52:50.534Z,101515.11
2018-06-25T18:55:21.140Z,101515.55
2018-06-25T18:57:53.199Z,101512.25
2018-06-25T19:00:24.282Z,101513.11
2018-06-25T19:02:55.270Z,101512.98
2018-06-25T19:05:25.824Z,101514.31
2018-06-25T19:07:56.757Z,101520.12
2018-06-25T19:10:27.518Z,101512.73
2018-06-25T19:13:01.572Z,101519.67
2018-06-25T19:15:35.421Z,101518.60
2018-06-25T19:18:10.457Z,101518.67
2018-06-25T19:20:45.125Z,101516.91
2018-06-25T19:23:17.942Z,101519.59
2018-06-25T19:25:51.768Z,101516.67
2018-06-25T19:28:25.946Z,101525.43
2018-06-25T19:31:00.290Z,101532.09
2018-06-25T19:33:30.851Z,101529.44
2018-06-25T19:36:03.529Z,101528.84
2018-06-25T19:38:33.981Z,101534.80
2018-06-25T19:41:07.662Z,101524.19
2018-06-25T19:43:41.898Z,101530.47
2018-06-25T19:46:16.008Z,101529.51
2018-06-25T19:48:49.335Z,101535.98
2018-06-25T19:51:23.191Z,101536.86
2018-06-25T19:53:57.161Z,101543.67
2018-06-25T19:56:31.583Z,101544.23
2018-06-25T19:59:05.423Z,101545.11
2018-06-25T20:01:39.065Z,101558.31
2018-06-25T20:04:11.851Z,101549.84
2018-06-25T20:06:46.460Z,101561.58
2018-06-25T20:09:20.829Z,101557.98
2018-06-25T20:11:51.539Z,101556.98
2018-06-25T20:14:24.499Z,101559.08
2018-06-25T20:16:58.182Z,101554.48
2018-06-25T20:19:31.952Z,101558.34
2018-06-25T20:22:06.289Z,101565.27
2018-06-25T20:24:39.137Z,101562.23
2018-06-25T20:27:13.200Z,101563.94
2018-06-25T20:29:47.306Z,101569.13
2018-06-25T20:32:21.710Z,101570.22
2018-06-25T20:34:54.065Z,101575.41
2018-06-25T20:37:27.821Z,101571.17
2018-06-25T20:40:00.964Z,101575.06
2018-06-25T20:42:34.836Z,101580.02
2018-06-25T20:45:07.780Z,101583.05
2018-06-25T20:47:39.484Z,101583.78
2018-06-25T20:50:12.965Z,101588.96
2018-06-25T20:52:45.157Z,101589.20
2018-06-25T20:55:18.485Z,101589.58
2018-06-25T20:57:52.665Z,101586.55
2018-06-25T21:00:25.915Z,101583.89
2018-06-25T21:02:56.564Z,101590.20
2018-06-25T21:05:27.181Z,101588.30
2018-06-25T21:07:57.739Z,101586.55
2018-06-25T21:10:28.007Z,101587.34
2018-06-25T21:13:00.820Z,101590.48
2018-06-25T21:15:34.419Z,101597.70
2018-06-25T21:18:05.491Z,101597.00
2018-06-25T21:20:38.139Z,101591.58
2018-06-25T21:23:10.585Z,101583.69
2018-06-25T21:25:43.860Z,101586.83
2018-06-25T21:28:17.660Z,101598.09
2018-06-25T21:30:50.648Z,101596.28
2018-06-25T21:33:24.598Z,101591.92
2018-06-25T21:35:59.056Z,101590.01
2018-06-25T21:38:33.067Z,101586.12
2018-06-25T21:41:07.107Z,101587.34
2018-06-25T21:43:41.264Z,101588.67
2018-06-25T21:46:15.895Z,101588.92
2018-06-25T21:48:50.054Z,101584.80
2018-06-25T21:51:24.295Z,101593.63
2018-06-25T21:53:57.885Z,101592.92
2018-06-25T21:56:28.410Z,101582.98
2018-06-25T21:59:00.811Z,101583.46
2018-06-25T22:01:34.686Z,101589.77
2018-06-25T22:04:05.423Z,101589.50
2018-06-25T22:06:35.702Z,101589.33
2018-06-25T22:09:09.515Z,101588.89
2018-06-25T22:11:39.790Z,101587.56
2018-06-25T22:14:10.876Z,101592.73
2018-06-25T22:16:40.922Z,101599.83
2018-06-25T22:19:10.906Z,101600.43
2018-06-25T22:21:41.170Z,101604.17
2018-06-25T22:24:11.438Z,101602.34
2018-06-25T22:26:41.791Z,101603.98
2018-06-25T22:29:12.062Z,101604.50
2018-06-25T22:31:42.336Z,101603.23
2018-06-25T22:34:12.629Z,101598.77
2018-06-25T22:36:43.044Z,101605.23
2018-06-25T22:39:13.363Z,101607.89
2018-06-25T22:41:43.623Z,101603.33
2018-06-25T22:44:14.882Z,101602.00
2018-06-25T22:46:44.883Z,101605.13
2018-06-25T22:49:14.989Z,101605.61
2018-06-25T22:51:45.327Z,101604.16
2018-06-25T22:54:15.582Z,101607.16
2018-06-25T22:56:45.876Z,101605.33
2018-06-25T22:59:16.084Z,101604.72
2018-06-25T23:01:46.336Z,101610.86
2018-06-25T23:04:16.607Z,101612.56
2018-06-25T23:06:46.900Z,101609.66
2018-06-25T23:09:17.231Z,101619.05
2018-06-25T23:11:47.536Z,101625.69
2018-06-25T23:14:17.801Z,101625.44
2018-06-25T23:16:48.082Z,101623.76
2018-06-25T23:19:18.458Z,101625.18
2018-06-25T23:21:48.744Z,101624.07
2018-06-25T23:24:19.015Z,101624.45
2018-06-25T23:26:49.297Z,101625.14
2018-06-25T23:29:19.603Z,101626.00
2018-06-25T23:31:49.858Z,101630.45
2018-06-25T23:34:19.893Z,101632.00
2018-06-25T23:36:50.035Z,101630.80
2018-06-25T23:39:20.463Z,101626.34
2018-06-25T23:41:50.808Z,101623.78
2018-06-25T23:44:21.150Z,101623.78
2018-06-25T23:46:51.201Z,101626.56
2018-06-25T23:49:21.323Z,101632.44
2018-06-25T23:51:51.603Z,101630.85
2018-06-25T23:54:21.899Z,101639.20
2018-06-25T23:56:52.190Z,101641.59
2018-06-25T23:59:22.218Z,101641.98
